Othello — LXOD — position and weather

sailwx.info

Track history (hours):
 
Tides and Currents Weather Stations Pressure Air Temp Water Temp Dewpoint Dewpoint Depression Visibility Wind Speed Wind Dir Waves Ship Positions

Othello

Last reported at 2017-Apr-28 16:09 UTC. Time now 2017-Apr-28 20:09 UTC.
Position N 51°45' E 002°57'.

Length 104 m; draft 5.5 m.

Type: Tanker. MMSI: 253279000.

Date/timePositionNaut miles runAvg speedWind from/ knotsBaromVisibWave heightAir tempDewpointWater temp
2017-Apr-28 16:09N 51°45' E 002°57'311.7
2017-Apr-28 15:54N 51°45' E 003°02'811.8
2017-Apr-28 15:14N 51°43' E 003°14'312.2
2017-Apr-28 15:01N 51°42' E 003°17'1212.4
2017-Apr-28 14:00N 51°31' E 003°27'510.8
2017-Apr-28 13:30N 51°27' E 003°33'4 7.4
2017-Apr-28 13:00N 51°26' E 003°39'5 9.9
2017-Apr-28 12:31N 51°23' E 003°44'511.0
2017-Apr-28 12:01N 51°21' E 003°52'510.8
2017-Apr-28 11:30N 51°25' E 003°58'4 8.1
2017-Apr-28 11:01N 51°23' E 004°03'611.5
2017-Apr-28 10:28N 51°23' E 004°13'4 8.1
2017-Apr-28 10:00N 51°21' E 004°17'0 0.0
2017-Apr-28 09:27N 51°21' E 004°17'1 1.5
2017-Apr-28 09:00N 51°20' E 004°18'3 5.7
2017-Apr-28 08:30N 51°18' E 004°20'1 2.5
2017-Apr-28 08:00N 51°17' E 004°20'0 0.0
2017-Apr-28 07:24N 51°17' E 004°20'0 0.0
2017-Apr-28 06:57N 51°17' E 004°20'0 0.0
2017-Apr-28 06:27N 51°17' E 004°20'0 0.0
2017-Apr-28 05:57N 51°17' E 004°20'0 0.0
2017-Apr-28 05:30N 51°17' E 004°20'0 0.0
2017-Apr-28 05:00N 51°17' E 004°20'0 0.0
2017-Apr-28 04:27N 51°17' E 004°20'0 0.0
2017-Apr-28 03:57N 51°17' E 004°20'0 0.0
2017-Apr-28 03:30N 51°17' E 004°20'0 0.0
2017-Apr-28 02:54N 51°17' E 004°20'0 0.0
2017-Apr-28 02:30N 51°17' E 004°20'0 0.0
2017-Apr-28 01:54N 51°17' E 004°20'0 0.0
2017-Apr-28 01:30N 51°17' E 004°20'0 0.0
2017-Apr-28 00:54N 51°17' E 004°20'0 0.0
2017-Apr-28 00:24N 51°17' E 004°20'0 0.0
2017-Apr-28 00:00N 51°17' E 004°20'0 0.0
2017-Apr-27 23:24N 51°17' E 004°20'0 0.0
2017-Apr-27 22:57N 51°17' E 004°20'0 0.0
2017-Apr-27 22:30N 51°17' E 004°20'0 0.0
2017-Apr-27 22:00N 51°17' E 004°20'0 0.0
2017-Apr-27 21:27N 51°17' E 004°20'0 0.0
2017-Apr-27 20:39N 51°17' E 004°20'0 0.0
2017-Apr-27 20:27N 51°17' E 004°20'0 0.0
2017-Apr-27 20:00N 51°17' E 004°20'0 0.0
2017-Apr-27 19:30N 51°17' E 004°20'0 0.0
2017-Apr-27 19:00N 51°17' E 004°20'0 0.0
2017-Apr-27 18:30N 51°17' E 004°20'0 0.0
2017-Apr-27 18:00N 51°17' E 004°20'0 0.0
2017-Apr-27 17:27N 51°17' E 004°20'0 0.0
2017-Apr-27 17:00N 51°17' E 004°20'0 0.0
2017-Apr-27 16:27N 51°17' E 004°20'0 0.0
2017-Apr-27 15:54N 51°17' E 004°20'0 0.0
2017-Apr-27 15:30N 51°17' E 004°20'0 0.0
2017-Apr-27 15:00N 51°17' E 004°20'0 0.0
2017-Apr-27 14:00N 51°17' E 004°20'0 0.0
2017-Apr-27 13:30N 51°17' E 004°20'0 0.2
2017-Apr-27 13:00N 51°17' E 004°20'0 0.0
2017-Apr-27 12:30N 51°17' E 004°20'0 0.0
2017-Apr-27 12:00N 51°17' E 004°20'0 0.0
2017-Apr-27 11:30N 51°17' E 004°20'0 0.0
2017-Apr-27 10:48N 51°17' E 004°20'0 0.0
2017-Apr-27 10:24N 51°17' E 004°20'0 0.0
2017-Apr-27 10:00N 51°17' E 004°20'0 0.0
2017-Apr-27 09:18N 51°17' E 004°20'0 0.0
2017-Apr-27 09:00N 51°17' E 004°20'0 0.0
2017-Apr-27 08:30N 51°17' E 004°20'0 0.0
2017-Apr-27 08:00N 51°17' E 004°20'0 0.0
2017-Apr-27 07:30N 51°17' E 004°20'0 0.0
2017-Apr-27 07:00N 51°17' E 004°20'0 0.0
2017-Apr-27 06:30N 51°17' E 004°20'0 0.0
2017-Apr-27 05:54N 51°17' E 004°20'0 0.0
2017-Apr-27 05:30N 51°17' E 004°20'0 0.0
2017-Apr-27 05:00N 51°17' E 004°20'0 0.0
2017-Apr-27 04:30N 51°17' E 004°20'0 0.0
2017-Apr-27 04:00N 51°17' E 004°20'0 0.0
2017-Apr-27 03:27N 51°17' E 004°20'0 0.0
2017-Apr-27 02:54N 51°17' E 004°20'0 0.0
2017-Apr-27 02:27N 51°17' E 004°20'0 0.0
2017-Apr-27 02:00N 51°17' E 004°20'0 0.0
2017-Apr-27 01:30N 51°17' E 004°20'0 0.0
2017-Apr-27 01:00N 51°17' E 004°20'0 0.0
2017-Apr-27 00:30N 51°17' E 004°20'0 0.0
2017-Apr-27 00:00N 51°17' E 004°20'0 0.0
2017-Apr-26 23:27N 51°17' E 004°20'0 0.0
2017-Apr-26 22:57N 51°17' E 004°20'0 0.0
2017-Apr-26 22:18N 51°17' E 004°20'0 0.0
2017-Apr-26 21:57N 51°17' E 004°20'0 0.0
2017-Apr-26 21:30N 51°17' E 004°20'0 0.0
2017-Apr-26 21:00N 51°17' E 004°20'0 0.0
2017-Apr-26 20:27N 51°17' E 004°20'0 0.0
2017-Apr-26 19:57N 51°17' E 004°20'0 0.0
2017-Apr-26 19:30N 51°17' E 004°20'0 0.0
2017-Apr-26 18:57N 51°17' E 004°20'0 0.0
2017-Apr-26 18:30N 51°17' E 004°20'1 1.9
2017-Apr-26 18:00N 51°18' E 004°20'3 7.0
2017-Apr-26 17:30N 51°21' E 004°17'0 0.1
2017-Apr-26 17:00N 51°21' E 004°17'0 0.0
2017-Apr-26 16:30N 51°21' E 004°17'1 2.5
2017-Apr-26 16:00N 51°21' E 004°15'4 8.3
2017-Apr-26 15:31N 51°23' E 004°09'5 9.8
2017-Apr-26 15:01N 51°24' E 004°02'3 6.7
2017-Apr-26 14:30N 51°23' E 003°57'1010.4
2017-Apr-26 13:30N 51°26' E 003°41'5 9.5
2017-Apr-26 13:00N 51°27' E 003°33'612.0
2017-Apr-26 12:30N 51°31' E 003°26'611.5
2017-Apr-26 12:00N 51°36' E 003°23'6 9.9
2017-Apr-26 11:24N 51°41' E 003°17'7110.4
2017-Apr-26 04:37N 52°36' E 002°06'111.7
2017-Apr-26 04:30N 52°38' E 002°05'611.5
2017-Apr-26 04:00N 52°43' E 002°01'511.0
2017-Apr-26 03:30N 52°47' E 001°55'510.8
2017-Apr-26 03:00N 52°50' E 001°48'510.0
2017-Apr-26 02:30N 52°53' E 001°41'5 9.6
2017-Apr-26 02:00N 52°56' E 001°35'5 9.3
2017-Apr-26 01:30N 52°58' E 001°29'5 9.6
2017-Apr-26 01:00N 53°02' E 001°24'5 9.9
2017-Apr-26 00:30N 53°06' E 001°19'510.1
2017-Apr-26 00:00N 53°11' E 001°15'510.1
2017-Apr-25 23:30N 53°14' E 001°09'5310.7
2017-Apr-25 18:37N 53°38' W 000°10'1 7.6
2017-Apr-25 18:30N 53°38' W 000°11'611.6
2017-Apr-25 18:00N 53°44' W 000°15'0 0.1
2017-Apr-25 17:30N 53°44' W 000°15'0 0.0
2017-Apr-25 17:00N 53°44' W 000°15'0 0.0
2017-Apr-25 16:30N 53°44' W 000°15'0 0.0
2017-Apr-25 16:00N 53°44' W 000°15'0 0.0
2017-Apr-25 15:30N 53°44' W 000°15'0 0.0
2017-Apr-25 15:00N 53°44' W 000°15'0 0.0
2017-Apr-25 14:30N 53°44' W 000°15'0 0.0
2017-Apr-25 13:30N 53°44' W 000°15'0 0.0
2017-Apr-25 13:00N 53°44' W 000°15'0 0.0
2017-Apr-25 12:30N 53°44' W 000°15'0 0.0
2017-Apr-25 12:00N 53°44' W 000°15'0 0.0
2017-Apr-25 11:30N 53°44' W 000°15'0 0.0
2017-Apr-25 11:00N 53°44' W 000°15'0 0.0
2017-Apr-25 10:30N 53°44' W 000°15'0 0.0
2017-Apr-25 10:00N 53°44' W 000°15'0 0.0
2017-Apr-25 09:30N 53°44' W 000°15'0 0.0
2017-Apr-25 09:00N 53°44' W 000°15'0 0.0
2017-Apr-25 08:30N 53°44' W 000°15'0 0.0
2017-Apr-25 08:00N 53°44' W 000°15'0 0.0
2017-Apr-25 07:30N 53°44' W 000°15'0 0.0
2017-Apr-25 07:00N 53°44' W 000°15'0 0.0
2017-Apr-25 06:30N 53°44' W 000°15'0 0.0
2017-Apr-25 06:00N 53°44' W 000°15'0 0.0
2017-Apr-25 05:30N 53°44' W 000°15'0 0.0
2017-Apr-25 05:00N 53°44' W 000°15'0 0.0
2017-Apr-25 04:30N 53°44' W 000°15'0 0.0
2017-Apr-25 04:00N 53°44' W 000°15'0 0.0
2017-Apr-25 03:30N 53°44' W 000°15'0 0.0
2017-Apr-25 02:57N 53°44' W 000°15'0 0.0
2017-Apr-25 02:30N 53°44' W 000°15'0 0.0
2017-Apr-25 02:00N 53°44' W 000°15'0 0.0
2017-Apr-25 01:30N 53°44' W 000°15'0 0.0
2017-Apr-25 01:00N 53°44' W 000°15'0 0.0
2017-Apr-25 00:30N 53°44' W 000°15'0 0.0
2017-Apr-25 00:00N 53°44' W 000°15'0 0.0
2017-Apr-24 23:30N 53°44' W 000°15'0 0.0
2017-Apr-24 23:00N 53°44' W 000°15'0 0.0
2017-Apr-24 22:30N 53°44' W 000°15'0 0.0
2017-Apr-24 22:00N 53°44' W 000°15'0 0.0
2017-Apr-24 21:30N 53°44' W 000°15'0 0.0
2017-Apr-24 21:00N 53°44' W 000°15'0 0.0
2017-Apr-24 20:30N 53°44' W 000°15'0 0.0
2017-Apr-24 20:00N 53°44' W 000°15'0 0.0
2017-Apr-24 19:30N 53°44' W 000°15'0 0.0
2017-Apr-24 19:00N 53°44' W 000°15'0 0.0
2017-Apr-24 18:27N 53°44' W 000°15'0 0.0
2017-Apr-24 18:00N 53°44' W 000°15'0 0.0
2017-Apr-24 17:30N 53°44' W 000°15'0 0.0
2017-Apr-24 17:00N 53°44' W 000°15'0 0.0
2017-Apr-24 16:30N 53°44' W 000°15'0 0.0
2017-Apr-24 16:00N 53°44' W 000°15'0 0.8
2017-Apr-24 15:30N 53°43' W 000°15'511.1
2017-Apr-24 15:00N 53°38' W 000°11'611.2
2017-Apr-24 14:30N 53°36' W 000°02'5 1.6
2017-Apr-24 11:21N 53°33' E 000°04'0 0.1
2017-Apr-24 10:48N 53°33' E 000°05'0 0.0
2017-Apr-24 10:27N 53°33' E 000°05'0 0.0
2017-Apr-24 02:42N 53°33' E 000°04'0 0.0
2017-Apr-24 02:15N 53°33' E 000°04'0 0.1
2017-Apr-24 01:54N 53°33' E 000°04'0 0.0
2017-Apr-24 01:27N 53°33' E 000°04'0 0.0
2017-Apr-24 00:27N 53°33' E 000°04'0 0.1
2017-Apr-23 23:27N 53°33' E 000°05'0 0.0
2017-Apr-23 20:57N 53°33' E 000°05'0 0.0
2017-Apr-23 20:09N 53°33' E 000°05'0 0.0
2017-Apr-23 09:09N 53°33' E 000°05'0 0.0
2017-Apr-23 05:43N 53°33' E 000°05'0 0.1
2017-Apr-23 05:30N 53°33' E 000°05'0 1.0
2017-Apr-23 05:00N 53°33' E 000°05'4311.1
2017-Apr-23 01:05N 53°16' E 001°12'211.3
2017-Apr-23 00:55N 53°14' E 001°13'511.7
2017-Apr-23 00:30N 53°10' E 001°17'612.2
2017-Apr-23 00:00N 53°04' E 001°22'713.0
2017-Apr-22 23:30N 52°59' E 001°28'714.2
2017-Apr-22 23:00N 52°55' E 001°37'714.3
2017-Apr-22 22:30N 52°50' E 001°46'713.6
2017-Apr-22 22:00N 52°47' E 001°56'612.6
2017-Apr-22 21:30N 52°42' E 002°03'612.7
2017-Apr-22 21:00N 52°36' E 002°06'6010.7
2017-Apr-22 15:23N 51°45' E 002°60'1511.1
2017-Apr-22 14:01N 51°38' E 003°21'713.3
2017-Apr-22 13:30N 51°32' E 003°26'713.4
2017-Apr-22 13:01N 51°27' E 003°33'510.9
2017-Apr-22 12:30N 51°26' E 003°42'612.3
2017-Apr-22 12:00N 51°21' E 003°48'611.8
2017-Apr-22 11:30N 51°24' E 003°57'3 6.2
2017-Apr-22 10:58N 51°24' E 004°02'4 9.4
2017-Apr-22 10:30N 51°23' E 004°09'5 7.8
2017-Apr-22 09:55N 51°21' E 004°16'1 1.5
2017-Apr-22 09:15N 51°21' E 004°17'0 0.7
2017-Apr-22 09:00N 51°21' E 004°18'2 3.9
2017-Apr-22 08:30N 51°19' E 004°19'2 5.0
2017-Apr-22 08:00N 51°17' E 004°20'0 0.0
2017-Apr-22 07:06N 51°17' E 004°20'0 0.0
2017-Apr-22 07:00N 51°17' E 004°20'0 0.0
2017-Apr-22 06:30N 51°17' E 004°20'0 0.0
2017-Apr-22 06:00N 51°17' E 004°20'0 0.0
2017-Apr-22 05:30N 51°17' E 004°20'0 0.0
2017-Apr-22 05:00N 51°17' E 004°20'0 0.0
2017-Apr-22 04:27N 51°17' E 004°20'0 0.0
2017-Apr-22 03:57N 51°17' E 004°20'0 0.0
2017-Apr-22 03:30N 51°17' E 004°20'0 0.0
2017-Apr-22 02:57N 51°17' E 004°20'0 0.0
2017-Apr-22 02:30N 51°17' E 004°20'0 0.0
2017-Apr-22 01:57N 51°17' E 004°20'0 0.0
2017-Apr-22 01:30N 51°17' E 004°20'0 0.0
2017-Apr-22 01:00N 51°17' E 004°20'0 0.0
2017-Apr-22 00:30N 51°17' E 004°20'0 0.0
2017-Apr-21 23:51N 51°17' E 004°20'0 0.0
2017-Apr-21 23:27N 51°17' E 004°20'0 0.0
2017-Apr-21 23:00N 51°17' E 004°20'0 0.0
2017-Apr-21 22:24N 51°17' E 004°20'0 0.0
2017-Apr-21 22:00N 51°17' E 004°20'0 0.0
2017-Apr-21 21:30N 51°17' E 004°20'0 0.0
2017-Apr-21 20:54N 51°17' E 004°20'0 0.0
2017-Apr-21 20:27N 51°17' E 004°20'0 0.0
2017-Apr-21 20:00N 51°17' E 004°20'0 0.0
2017-Apr-21 19:27N 51°17' E 004°20'0 0.0
2017-Apr-21 18:57N 51°17' E 004°20'0 0.0
2017-Apr-21 18:30N 51°17' E 004°20'0 0.0
2017-Apr-21 18:00N 51°17' E 004°20'0 0.0
2017-Apr-21 17:27N 51°17' E 004°20'0 0.2
2017-Apr-21 17:00N 51°17' E 004°20'0 0.0
2017-Apr-21 16:30N 51°17' E 004°20'0 0.0
2017-Apr-21 15:57N 51°17' E 004°20'0 0.0
2017-Apr-21 15:30N 51°17' E 004°20'0 0.0
2017-Apr-21 15:00N 51°17' E 004°20'0 0.0
2017-Apr-21 14:27N 51°17' E 004°20'0 0.0
2017-Apr-21 13:27N 51°17' E 004°20'0 0.0
2017-Apr-21 13:00N 51°17' E 004°20'0 0.0
2017-Apr-21 12:30N 51°17' E 004°20'0 0.0
2017-Apr-21 11:57N 51°17' E 004°20'0 0.0
2017-Apr-21 11:27N 51°17' E 004°20'0 0.0
2017-Apr-21 10:54N 51°17' E 004°20'0 0.0
2017-Apr-21 10:30N 51°17' E 004°20'0 0.0
2017-Apr-21 10:00N 51°17' E 004°20'0 0.0
2017-Apr-21 09:30N 51°17' E 004°20'0 0.0
2017-Apr-21 09:00N 51°17' E 004°20'0 0.0
2017-Apr-21 08:30N 51°17' E 004°20'0 0.0
2017-Apr-21 08:00N 51°17' E 004°20'0 0.0
2017-Apr-21 07:30N 51°17' E 004°20'0 0.0
2017-Apr-21 07:00N 51°17' E 004°20'0 0.0
2017-Apr-21 06:30N 51°17' E 004°20'0 0.0
2017-Apr-21 06:00N 51°17' E 004°20'0 0.0
2017-Apr-21 05:30N 51°17' E 004°20'0 0.0
2017-Apr-21 05:00N 51°17' E 004°20'0 0.0
2017-Apr-21 04:30N 51°17' E 004°20'0 0.0
2017-Apr-21 04:00N 51°17' E 004°20'1 1.5
2017-Apr-21 03:30N 51°18' E 004°20'3 6.7
2017-Apr-21 03:00N 51°21' E 004°18'0 0.8
2017-Apr-21 02:30N 51°21' E 004°17'0 0.0
2017-Apr-21 02:00N 51°21' E 004°17'0 0.0
2017-Apr-21 01:30N 51°21' E 004°17'0 0.3
2017-Apr-21 01:01N 51°21' E 004°17'3 6.1
2017-Apr-21 00:30N 51°22' E 004°13'4 7.2
2017-Apr-20 23:59N 51°22' E 004°07'4 8.1
2017-Apr-20 23:30N 51°24' E 004°02'3 5.6
2017-Apr-20 23:00N 51°24' E 003°57'5 9.9
2017-Apr-20 22:30N 51°21' E 003°51'510.4
2017-Apr-20 22:00N 51°23' E 003°44'5 9.7
2017-Apr-20 21:30N 51°26' E 003°39'4 9.0
2017-Apr-20 21:00N 51°27' E 003°31'5 9.3
2017-Apr-20 20:30N 51°31' E 003°27'510.3
2017-Apr-20 20:00N 51°35' E 003°23'611.8
2017-Apr-20 19:30N 51°40' E 003°18'610.5
2017-Apr-20 18:57N 51°45' E 003°12'612.6
2017-Apr-20 18:30N 51°46' E 003°03'6011.8
2017-Apr-20 13:28N 52°35' E 002°07'612.8
2017-Apr-20 13:00N 52°40' E 002°03'612.7
2017-Apr-20 12:30N 52°45' E 001°57'713.2
2017-Apr-20 12:00N 52°49' E 001°48'713.1
2017-Apr-20 11:30N 52°53' E 001°40'612.8
2017-Apr-20 11:00N 52°57' E 001°31'612.2
2017-Apr-20 10:30N 53°02' E 001°25'612.0
2017-Apr-20 10:00N 53°07' E 001°19'612.7
2017-Apr-20 09:30N 53°12' E 001°13'814.7
2017-Apr-20 08:59N 53°18' E 001°05'3413.0
2017-Apr-20 06:23N 53°33' E 000°14'411.3
2017-Apr-20 06:00N 53°33' E 000°07'611.9
2017-Apr-20 05:30N 53°36' W 000°03'611.4
2017-Apr-20 05:00N 53°38' W 000°11'510.1
2017-Apr-20 04:30N 53°43' W 000°15'1 1.4
2017-Apr-20 04:00N 53°44' W 000°15'0 0.0
2017-Apr-20 03:27N 53°44' W 000°15'0 0.0
2017-Apr-20 03:00N 53°44' W 000°15'0 0.0
2017-Apr-20 02:30N 53°44' W 000°15'0 0.0
2017-Apr-20 02:00N 53°44' W 000°15'0 0.0
2017-Apr-20 01:30N 53°44' W 000°15'0 0.0
2017-Apr-20 01:00N 53°44' W 000°15'0 0.0
2017-Apr-20 00:30N 53°44' W 000°15'0 0.0
2017-Apr-20 00:00N 53°44' W 000°15'0 0.0
2017-Apr-19 23:30N 53°44' W 000°15'0 0.0
2017-Apr-19 23:00N 53°44' W 000°15'0 0.0
2017-Apr-19 22:30N 53°44' W 000°15'0 0.0
2017-Apr-19 22:00N 53°44' W 000°15'0 0.0
2017-Apr-19 21:30N 53°44' W 000°15'0 0.0
2017-Apr-19 21:00N 53°44' W 000°15'0 0.0
2017-Apr-19 20:30N 53°44' W 000°15'0 0.0
2017-Apr-19 20:00N 53°44' W 000°15'0 0.0
2017-Apr-19 19:30N 53°44' W 000°15'0 0.0
2017-Apr-19 19:00N 53°44' W 000°15'0 0.0
2017-Apr-19 18:30N 53°44' W 000°15'0 0.0
2017-Apr-19 18:00N 53°44' W 000°15'0 0.0
2017-Apr-19 17:30N 53°44' W 000°15'0 0.0
2017-Apr-19 17:00N 53°44' W 000°15'0 0.0
2017-Apr-19 16:30N 53°44' W 000°15'0 0.0
2017-Apr-19 16:00N 53°44' W 000°15'0 0.0
2017-Apr-19 15:30N 53°44' W 000°15'0 0.0
2017-Apr-19 15:00N 53°44' W 000°15'0 0.0
2017-Apr-19 14:30N 53°44' W 000°15'0 0.0
2017-Apr-19 13:24N 53°44' W 000°15'0 0.0
2017-Apr-19 13:00N 53°44' W 000°15'0 0.0
2017-Apr-19 12:30N 53°44' W 000°15'0 0.0
2017-Apr-19 12:00N 53°44' W 000°15'0 0.0
2017-Apr-19 11:30N 53°44' W 000°15'0 0.0
2017-Apr-19 11:00N 53°44' W 000°15'0 0.0
2017-Apr-19 10:30N 53°44' W 000°15'0 0.0
2017-Apr-19 10:00N 53°44' W 000°15'2 4.5
2017-Apr-19 09:30N 53°42' W 000°14'611.9
2017-Apr-19 09:00N 53°37' W 000°07'713.8
2017-Apr-19 08:30N 53°35' E 000°04'4 8.2
2017-Apr-19 07:59N 53°33' E 000°11'4012.4
2017-Apr-19 04:44N 53°15' E 001°12'313.8
2017-Apr-19 04:30N 53°13' E 001°14'713.4
2017-Apr-19 04:00N 53°07' E 001°20'613.0
2017-Apr-19 03:30N 53°01' E 001°26'612.5
2017-Apr-19 03:00N 52°57' E 001°33'612.1
2017-Apr-19 02:30N 52°53' E 001°41'611.7
2017-Apr-19 02:00N 52°49' E 001°48'611.5
2017-Apr-19 01:30N 52°46' E 001°56'510.6
2017-Apr-19 01:01N 52°42' E 002°02'610.9
2017-Apr-19 00:30N 52°37' E 002°05'6211.3
2017-Apr-18 19:03N 51°46' E 003°02'312.1
2017-Apr-18 18:49N 51°45' E 003°06'1010.1
2017-Apr-18 17:47N 51°39' E 003°20'412.7
2017-Apr-18 17:30N 51°36' E 003°23'612.9
2017-Apr-18 17:00N 51°30' E 003°27'611.6
2017-Apr-18 16:30N 51°26' E 003°34'  
Track history (hours):
 
Tides and Currents Weather Stations Pressure Air Temp Water Temp Dewpoint Dewpoint Depression Visibility Wind Speed Wind Dir Waves Ship Positions

Othello

Last reported at 2017-Apr-28 16:09 UTC. Time now 2017-Apr-28 20:09 UTC.
Position N 51°45' E 002°57'.

Length 104 m; draft 5.5 m.

Type: Tanker. MMSI: 253279000.

Date/timePositionNaut miles runAvg speedWind from/ knotsBaromVisibWave heightAir tempDewpointWater temp
2017-Apr-28 16:09N 51°45' E 002°57'311.7
2017-Apr-28 15:54N 51°45' E 003°02'811.8
2017-Apr-28 15:14N 51°43' E 003°14'312.2
2017-Apr-28 15:01N 51°42' E 003°17'1212.4
2017-Apr-28 14:00N 51°31' E 003°27'510.8
2017-Apr-28 13:30N 51°27' E 003°33'4 7.4
2017-Apr-28 13:00N 51°26' E 003°39'5 9.9
2017-Apr-28 12:31N 51°23' E 003°44'511.0
2017-Apr-28 12:01N 51°21' E 003°52'510.8
2017-Apr-28 11:30N 51°25' E 003°58'4 8.1
2017-Apr-28 11:01N 51°23' E 004°03'611.5
2017-Apr-28 10:28N 51°23' E 004°13'4 8.1
2017-Apr-28 10:00N 51°21' E 004°17'0 0.0
2017-Apr-28 09:27N 51°21' E 004°17'1 1.5
2017-Apr-28 09:00N 51°20' E 004°18'3 5.7
2017-Apr-28 08:30N 51°18' E 004°20'1 2.5
2017-Apr-28 08:00N 51°17' E 004°20'0 0.0
2017-Apr-28 07:24N 51°17' E 004°20'0 0.0
2017-Apr-28 06:57N 51°17' E 004°20'0 0.0
2017-Apr-28 06:27N 51°17' E 004°20'0 0.0
2017-Apr-28 05:57N 51°17' E 004°20'0 0.0
2017-Apr-28 05:30N 51°17' E 004°20'0 0.0
2017-Apr-28 05:00N 51°17' E 004°20'0 0.0
2017-Apr-28 04:27N 51°17' E 004°20'0 0.0
2017-Apr-28 03:57N 51°17' E 004°20'0 0.0
2017-Apr-28 03:30N 51°17' E 004°20'0 0.0
2017-Apr-28 02:54N 51°17' E 004°20'0 0.0
2017-Apr-28 02:30N 51°17' E 004°20'0 0.0
2017-Apr-28 01:54N 51°17' E 004°20'0 0.0
2017-Apr-28 01:30N 51°17' E 004°20'0 0.0
2017-Apr-28 00:54N 51°17' E 004°20'0 0.0
2017-Apr-28 00:24N 51°17' E 004°20'0 0.0
2017-Apr-28 00:00N 51°17' E 004°20'0 0.0
2017-Apr-27 23:24N 51°17' E 004°20'0 0.0
2017-Apr-27 22:57N 51°17' E 004°20'0 0.0
2017-Apr-27 22:30N 51°17' E 004°20'0 0.0
2017-Apr-27 22:00N 51°17' E 004°20'0 0.0
2017-Apr-27 21:27N 51°17' E 004°20'0 0.0
2017-Apr-27 20:39N 51°17' E 004°20'0 0.0
2017-Apr-27 20:27N 51°17' E 004°20'0 0.0
2017-Apr-27 20:00N 51°17' E 004°20'0 0.0
2017-Apr-27 19:30N 51°17' E 004°20'0 0.0
2017-Apr-27 19:00N 51°17' E 004°20'0 0.0
2017-Apr-27 18:30N 51°17' E 004°20'0 0.0
2017-Apr-27 18:00N 51°17' E 004°20'0 0.0
2017-Apr-27 17:27N 51°17' E 004°20'0 0.0
2017-Apr-27 17:00N 51°17' E 004°20'0 0.0
2017-Apr-27 16:27N 51°17' E 004°20'0 0.0
2017-Apr-27 15:54N 51°17' E 004°20'0 0.0
2017-Apr-27 15:30N 51°17' E 004°20'0 0.0
2017-Apr-27 15:00N 51°17' E 004°20'0 0.0
2017-Apr-27 14:00N 51°17' E 004°20'0 0.0
2017-Apr-27 13:30N 51°17' E 004°20'0 0.2
2017-Apr-27 13:00N 51°17' E 004°20'0 0.0
2017-Apr-27 12:30N 51°17' E 004°20'0 0.0
2017-Apr-27 12:00N 51°17' E 004°20'0 0.0
2017-Apr-27 11:30N 51°17' E 004°20'0 0.0
2017-Apr-27 10:48N 51°17' E 004°20'0 0.0
2017-Apr-27 10:24N 51°17' E 004°20'0 0.0
2017-Apr-27 10:00N 51°17' E 004°20'0 0.0
2017-Apr-27 09:18N 51°17' E 004°20'0 0.0
2017-Apr-27 09:00N 51°17' E 004°20'0 0.0
2017-Apr-27 08:30N 51°17' E 004°20'0 0.0
2017-Apr-27 08:00N 51°17' E 004°20'0 0.0
2017-Apr-27 07:30N 51°17' E 004°20'0 0.0
2017-Apr-27 07:00N 51°17' E 004°20'0 0.0
2017-Apr-27 06:30N 51°17' E 004°20'0 0.0
2017-Apr-27 05:54N 51°17' E 004°20'0 0.0
2017-Apr-27 05:30N 51°17' E 004°20'0 0.0
2017-Apr-27 05:00N 51°17' E 004°20'0 0.0
2017-Apr-27 04:30N 51°17' E 004°20'0 0.0
2017-Apr-27 04:00N 51°17' E 004°20'0 0.0
2017-Apr-27 03:27N 51°17' E 004°20'0 0.0
2017-Apr-27 02:54N 51°17' E 004°20'0 0.0
2017-Apr-27 02:27N 51°17' E 004°20'0 0.0
2017-Apr-27 02:00N 51°17' E 004°20'0 0.0
2017-Apr-27 01:30N 51°17' E 004°20'0 0.0
2017-Apr-27 01:00N 51°17' E 004°20'0 0.0
2017-Apr-27 00:30N 51°17' E 004°20'0 0.0
2017-Apr-27 00:00N 51°17' E 004°20'0 0.0
2017-Apr-26 23:27N 51°17' E 004°20'0 0.0
2017-Apr-26 22:57N 51°17' E 004°20'0 0.0
2017-Apr-26 22:18N 51°17' E 004°20'0 0.0
2017-Apr-26 21:57N 51°17' E 004°20'0 0.0
2017-Apr-26 21:30N 51°17' E 004°20'0 0.0
2017-Apr-26 21:00N 51°17' E 004°20'0 0.0
2017-Apr-26 20:27N 51°17' E 004°20'0 0.0
2017-Apr-26 19:57N 51°17' E 004°20'0 0.0
2017-Apr-26 19:30N 51°17' E 004°20'0 0.0
2017-Apr-26 18:57N 51°17' E 004°20'0 0.0
2017-Apr-26 18:30N 51°17' E 004°20'1 1.9
2017-Apr-26 18:00N 51°18' E 004°20'3 7.0
2017-Apr-26 17:30N 51°21' E 004°17'0 0.1
2017-Apr-26 17:00N 51°21' E 004°17'0 0.0
2017-Apr-26 16:30N 51°21' E 004°17'1 2.5
2017-Apr-26 16:00N 51°21' E 004°15'4 8.3
2017-Apr-26 15:31N 51°23' E 004°09'5 9.8
2017-Apr-26 15:01N 51°24' E 004°02'3 6.7
2017-Apr-26 14:30N 51°23' E 003°57'1010.4
2017-Apr-26 13:30N 51°26' E 003°41'5 9.5
2017-Apr-26 13:00N 51°27' E 003°33'612.0
2017-Apr-26 12:30N 51°31' E 003°26'611.5
2017-Apr-26 12:00N 51°36' E 003°23'6 9.9
2017-Apr-26 11:24N 51°41' E 003°17'7110.4
2017-Apr-26 04:37N 52°36' E 002°06'111.7
2017-Apr-26 04:30N 52°38' E 002°05'611.5
2017-Apr-26 04:00N 52°43' E 002°01'511.0
2017-Apr-26 03:30N 52°47' E 001°55'510.8
2017-Apr-26 03:00N 52°50' E 001°48'510.0
2017-Apr-26 02:30N 52°53' E 001°41'5 9.6
2017-Apr-26 02:00N 52°56' E 001°35'5 9.3
2017-Apr-26 01:30N 52°58' E 001°29'5 9.6
2017-Apr-26 01:00N 53°02' E 001°24'5 9.9
2017-Apr-26 00:30N 53°06' E 001°19'510.1
2017-Apr-26 00:00N 53°11' E 001°15'510.1
2017-Apr-25 23:30N 53°14' E 001°09'5310.7
2017-Apr-25 18:37N 53°38' W 000°10'1 7.6
2017-Apr-25 18:30N 53°38' W 000°11'611.6
2017-Apr-25 18:00N 53°44' W 000°15'0 0.1
2017-Apr-25 17:30N 53°44' W 000°15'0 0.0
2017-Apr-25 17:00N 53°44' W 000°15'0 0.0
2017-Apr-25 16:30N 53°44' W 000°15'0 0.0
2017-Apr-25 16:00N 53°44' W 000°15'0 0.0
2017-Apr-25 15:30N 53°44' W 000°15'0 0.0
2017-Apr-25 15:00N 53°44' W 000°15'0 0.0
2017-Apr-25 14:30N 53°44' W 000°15'0 0.0
2017-Apr-25 13:30N 53°44' W 000°15'0 0.0
2017-Apr-25 13:00N 53°44' W 000°15'0 0.0
2017-Apr-25 12:30N 53°44' W 000°15'0 0.0
2017-Apr-25 12:00N 53°44' W 000°15'0 0.0
2017-Apr-25 11:30N 53°44' W 000°15'0 0.0
2017-Apr-25 11:00N 53°44' W 000°15'0 0.0
2017-Apr-25 10:30N 53°44' W 000°15'0 0.0
2017-Apr-25 10:00N 53°44' W 000°15'0 0.0
2017-Apr-25 09:30N 53°44' W 000°15'0 0.0
2017-Apr-25 09:00N 53°44' W 000°15'0 0.0
2017-Apr-25 08:30N 53°44' W 000°15'0 0.0
2017-Apr-25 08:00N 53°44' W 000°15'0 0.0
2017-Apr-25 07:30N 53°44' W 000°15'0 0.0
2017-Apr-25 07:00N 53°44' W 000°15'0 0.0
2017-Apr-25 06:30N 53°44' W 000°15'0 0.0
2017-Apr-25 06:00N 53°44' W 000°15'0 0.0
2017-Apr-25 05:30N 53°44' W 000°15'0 0.0
2017-Apr-25 05:00N 53°44' W 000°15'0 0.0
2017-Apr-25 04:30N 53°44' W 000°15'0 0.0
2017-Apr-25 04:00N 53°44' W 000°15'0 0.0
2017-Apr-25 03:30N 53°44' W 000°15'0 0.0
2017-Apr-25 02:57N 53°44' W 000°15'0 0.0
2017-Apr-25 02:30N 53°44' W 000°15'0 0.0
2017-Apr-25 02:00N 53°44' W 000°15'0 0.0
2017-Apr-25 01:30N 53°44' W 000°15'0 0.0
2017-Apr-25 01:00N 53°44' W 000°15'0 0.0
2017-Apr-25 00:30N 53°44' W 000°15'0 0.0
2017-Apr-25 00:00N 53°44' W 000°15'0 0.0
2017-Apr-24 23:30N 53°44' W 000°15'0 0.0
2017-Apr-24 23:00N 53°44' W 000°15'0 0.0
2017-Apr-24 22:30N 53°44' W 000°15'0 0.0
2017-Apr-24 22:00N 53°44' W 000°15'0 0.0
2017-Apr-24 21:30N 53°44' W 000°15'0 0.0
2017-Apr-24 21:00N 53°44' W 000°15'0 0.0
2017-Apr-24 20:30N 53°44' W 000°15'0 0.0
2017-Apr-24 20:00N 53°44' W 000°15'0 0.0
2017-Apr-24 19:30N 53°44' W 000°15'0 0.0
2017-Apr-24 19:00N 53°44' W 000°15'0 0.0
2017-Apr-24 18:27N 53°44' W 000°15'0 0.0
2017-Apr-24 18:00N 53°44' W 000°15'0 0.0
2017-Apr-24 17:30N 53°44' W 000°15'0 0.0
2017-Apr-24 17:00N 53°44' W 000°15'0 0.0
2017-Apr-24 16:30N 53°44' W 000°15'0 0.0
2017-Apr-24 16:00N 53°44' W 000°15'0 0.8
2017-Apr-24 15:30N 53°43' W 000°15'511.1
2017-Apr-24 15:00N 53°38' W 000°11'611.2
2017-Apr-24 14:30N 53°36' W 000°02'5 1.6
2017-Apr-24 11:21N 53°33' E 000°04'0 0.1
2017-Apr-24 10:48N 53°33' E 000°05'0 0.0
2017-Apr-24 10:27N 53°33' E 000°05'0 0.0
2017-Apr-24 02:42N 53°33' E 000°04'0 0.0
2017-Apr-24 02:15N 53°33' E 000°04'0 0.1
2017-Apr-24 01:54N 53°33' E 000°04'0 0.0
2017-Apr-24 01:27N 53°33' E 000°04'0 0.0
2017-Apr-24 00:27N 53°33' E 000°04'0 0.1
2017-Apr-23 23:27N 53°33' E 000°05'0 0.0
2017-Apr-23 20:57N 53°33' E 000°05'0 0.0
2017-Apr-23 20:09N 53°33' E 000°05'0 0.0
2017-Apr-23 09:09N 53°33' E 000°05'0 0.0
2017-Apr-23 05:43N 53°33' E 000°05'0 0.1
2017-Apr-23 05:30N 53°33' E 000°05'0 1.0
2017-Apr-23 05:00N 53°33' E 000°05'4311.1
2017-Apr-23 01:05N 53°16' E 001°12'211.3
2017-Apr-23 00:55N 53°14' E 001°13'511.7
2017-Apr-23 00:30N 53°10' E 001°17'612.2
2017-Apr-23 00:00N 53°04' E 001°22'713.0
2017-Apr-22 23:30N 52°59' E 001°28'714.2
2017-Apr-22 23:00N 52°55' E 001°37'714.3
2017-Apr-22 22:30N 52°50' E 001°46'713.6
2017-Apr-22 22:00N 52°47' E 001°56'612.6
2017-Apr-22 21:30N 52°42' E 002°03'612.7
2017-Apr-22 21:00N 52°36' E 002°06'6010.7
2017-Apr-22 15:23N 51°45' E 002°60'1511.1
2017-Apr-22 14:01N 51°38' E 003°21'713.3
2017-Apr-22 13:30N 51°32' E 003°26'713.4
2017-Apr-22 13:01N 51°27' E 003°33'510.9
2017-Apr-22 12:30N 51°26' E 003°42'612.3
2017-Apr-22 12:00N 51°21' E 003°48'611.8
2017-Apr-22 11:30N 51°24' E 003°57'3 6.2
2017-Apr-22 10:58N 51°24' E 004°02'4 9.4
2017-Apr-22 10:30N 51°23' E 004°09'5 7.8
2017-Apr-22 09:55N 51°21' E 004°16'1 1.5
2017-Apr-22 09:15N 51°21' E 004°17'0 0.7
2017-Apr-22 09:00N 51°21' E 004°18'2 3.9
2017-Apr-22 08:30N 51°19' E 004°19'2 5.0
2017-Apr-22 08:00N 51°17' E 004°20'0 0.0
2017-Apr-22 07:06N 51°17' E 004°20'0 0.0
2017-Apr-22 07:00N 51°17' E 004°20'0 0.0
2017-Apr-22 06:30N 51°17' E 004°20'0 0.0
2017-Apr-22 06:00N 51°17' E 004°20'0 0.0
2017-Apr-22 05:30N 51°17' E 004°20'0 0.0
2017-Apr-22 05:00N 51°17' E 004°20'0 0.0
2017-Apr-22 04:27N 51°17' E 004°20'0 0.0
2017-Apr-22 03:57N 51°17' E 004°20'0 0.0
2017-Apr-22 03:30N 51°17' E 004°20'0 0.0
2017-Apr-22 02:57N 51°17' E 004°20'0 0.0
2017-Apr-22 02:30N 51°17' E 004°20'0 0.0
2017-Apr-22 01:57N 51°17' E 004°20'0 0.0
2017-Apr-22 01:30N 51°17' E 004°20'0 0.0
2017-Apr-22 01:00N 51°17' E 004°20'0 0.0
2017-Apr-22 00:30N 51°17' E 004°20'0 0.0
2017-Apr-21 23:51N 51°17' E 004°20'0 0.0
2017-Apr-21 23:27N 51°17' E 004°20'0 0.0
2017-Apr-21 23:00N 51°17' E 004°20'0 0.0
2017-Apr-21 22:24N 51°17' E 004°20'0 0.0
2017-Apr-21 22:00N 51°17' E 004°20'0 0.0
2017-Apr-21 21:30N 51°17' E 004°20'0 0.0
2017-Apr-21 20:54N 51°17' E 004°20'0 0.0
2017-Apr-21 20:27N 51°17' E 004°20'0 0.0
2017-Apr-21 20:00N 51°17' E 004°20'0 0.0
2017-Apr-21 19:27N 51°17' E 004°20'0 0.0
2017-Apr-21 18:57N 51°17' E 004°20'0 0.0
2017-Apr-21 18:30N 51°17' E 004°20'0 0.0
2017-Apr-21 18:00N 51°17' E 004°20'0 0.0
2017-Apr-21 17:27N 51°17' E 004°20'0 0.2
2017-Apr-21 17:00N 51°17' E 004°20'0 0.0
2017-Apr-21 16:30N 51°17' E 004°20'0 0.0
2017-Apr-21 15:57N 51°17' E 004°20'0 0.0
2017-Apr-21 15:30N 51°17' E 004°20'0 0.0
2017-Apr-21 15:00N 51°17' E 004°20'0 0.0
2017-Apr-21 14:27N 51°17' E 004°20'0 0.0
2017-Apr-21 13:27N 51°17' E 004°20'0 0.0
2017-Apr-21 13:00N 51°17' E 004°20'0 0.0
2017-Apr-21 12:30N 51°17' E 004°20'0 0.0
2017-Apr-21 11:57N 51°17' E 004°20'0 0.0
2017-Apr-21 11:27N 51°17' E 004°20'0 0.0
2017-Apr-21 10:54N 51°17' E 004°20'0 0.0
2017-Apr-21 10:30N 51°17' E 004°20'0 0.0
2017-Apr-21 10:00N 51°17' E 004°20'0 0.0
2017-Apr-21 09:30N 51°17' E 004°20'0 0.0
2017-Apr-21 09:00N 51°17' E 004°20'0 0.0
2017-Apr-21 08:30N 51°17' E 004°20'0 0.0
2017-Apr-21 08:00N 51°17' E 004°20'0 0.0
2017-Apr-21 07:30N 51°17' E 004°20'0 0.0
2017-Apr-21 07:00N 51°17' E 004°20'0 0.0
2017-Apr-21 06:30N 51°17' E 004°20'0 0.0
2017-Apr-21 06:00N 51°17' E 004°20'0 0.0
2017-Apr-21 05:30N 51°17' E 004°20'0 0.0
2017-Apr-21 05:00N 51°17' E 004°20'0 0.0
2017-Apr-21 04:30N 51°17' E 004°20'0 0.0
2017-Apr-21 04:00N 51°17' E 004°20'1 1.5
2017-Apr-21 03:30N 51°18' E 004°20'3 6.7
2017-Apr-21 03:00N 51°21' E 004°18'0 0.8
2017-Apr-21 02:30N 51°21' E 004°17'0 0.0
2017-Apr-21 02:00N 51°21' E 004°17'0 0.0
2017-Apr-21 01:30N 51°21' E 004°17'0 0.3
2017-Apr-21 01:01N 51°21' E 004°17'3 6.1
2017-Apr-21 00:30N 51°22' E 004°13'4 7.2
2017-Apr-20 23:59N 51°22' E 004°07'4 8.1
2017-Apr-20 23:30N 51°24' E 004°02'3 5.6
2017-Apr-20 23:00N 51°24' E 003°57'5 9.9
2017-Apr-20 22:30N 51°21' E 003°51'510.4
2017-Apr-20 22:00N 51°23' E 003°44'5 9.7
2017-Apr-20 21:30N 51°26' E 003°39'4 9.0
2017-Apr-20 21:00N 51°27' E 003°31'5 9.3
2017-Apr-20 20:30N 51°31' E 003°27'510.3
2017-Apr-20 20:00N 51°35' E 003°23'611.8
2017-Apr-20 19:30N 51°40' E 003°18'610.5
2017-Apr-20 18:57N 51°45' E 003°12'612.6
2017-Apr-20 18:30N 51°46' E 003°03'6011.8
2017-Apr-20 13:28N 52°35' E 002°07'612.8
2017-Apr-20 13:00N 52°40' E 002°03'612.7
2017-Apr-20 12:30N 52°45' E 001°57'713.2
2017-Apr-20 12:00N 52°49' E 001°48'713.1
2017-Apr-20 11:30N 52°53' E 001°40'612.8
2017-Apr-20 11:00N 52°57' E 001°31'612.2
2017-Apr-20 10:30N 53°02' E 001°25'612.0
2017-Apr-20 10:00N 53°07' E 001°19'612.7
2017-Apr-20 09:30N 53°12' E 001°13'814.7
2017-Apr-20 08:59N 53°18' E 001°05'3413.0
2017-Apr-20 06:23N 53°33' E 000°14'411.3
2017-Apr-20 06:00N 53°33' E 000°07'611.9
2017-Apr-20 05:30N 53°36' W 000°03'611.4
2017-Apr-20 05:00N 53°38' W 000°11'510.1
2017-Apr-20 04:30N 53°43' W 000°15'1 1.4
2017-Apr-20 04:00N 53°44' W 000°15'0 0.0
2017-Apr-20 03:27N 53°44' W 000°15'0 0.0
2017-Apr-20 03:00N 53°44' W 000°15'0 0.0
2017-Apr-20 02:30N 53°44' W 000°15'0 0.0
2017-Apr-20 02:00N 53°44' W 000°15'0 0.0
2017-Apr-20 01:30N 53°44' W 000°15'0 0.0
2017-Apr-20 01:00N 53°44' W 000°15'0 0.0
2017-Apr-20 00:30N 53°44' W 000°15'0 0.0
2017-Apr-20 00:00N 53°44' W 000°15'0 0.0
2017-Apr-19 23:30N 53°44' W 000°15'0 0.0
2017-Apr-19 23:00N 53°44' W 000°15'0 0.0
2017-Apr-19 22:30N 53°44' W 000°15'0 0.0
2017-Apr-19 22:00N 53°44' W 000°15'0 0.0
2017-Apr-19 21:30N 53°44' W 000°15'0 0.0
2017-Apr-19 21:00N 53°44' W 000°15'0 0.0
2017-Apr-19 20:30N 53°44' W 000°15'0 0.0
2017-Apr-19 20:00N 53°44' W 000°15'0 0.0
2017-Apr-19 19:30N 53°44' W 000°15'0 0.0
2017-Apr-19 19:00N 53°44' W 000°15'0 0.0
2017-Apr-19 18:30N 53°44' W 000°15'0 0.0
2017-Apr-19 18:00N 53°44' W 000°15'0 0.0
2017-Apr-19 17:30N 53°44' W 000°15'0 0.0
2017-Apr-19 17:00N 53°44' W 000°15'0 0.0
2017-Apr-19 16:30N 53°44' W 000°15'0 0.0
2017-Apr-19 16:00N 53°44' W 000°15'0 0.0
2017-Apr-19 15:30N 53°44' W 000°15'0 0.0
2017-Apr-19 15:00N 53°44' W 000°15'0 0.0
2017-Apr-19 14:30N 53°44' W 000°15'0 0.0
2017-Apr-19 13:24N 53°44' W 000°15'0 0.0
2017-Apr-19 13:00N 53°44' W 000°15'0 0.0
2017-Apr-19 12:30N 53°44' W 000°15'0 0.0
2017-Apr-19 12:00N 53°44' W 000°15'0 0.0
2017-Apr-19 11:30N 53°44' W 000°15'0 0.0
2017-Apr-19 11:00N 53°44' W 000°15'0 0.0
2017-Apr-19 10:30N 53°44' W 000°15'0 0.0
2017-Apr-19 10:00N 53°44' W 000°15'2 4.5
2017-Apr-19 09:30N 53°42' W 000°14'611.9
2017-Apr-19 09:00N 53°37' W 000°07'713.8
2017-Apr-19 08:30N 53°35' E 000°04'4 8.2
2017-Apr-19 07:59N 53°33' E 000°11'4012.4
2017-Apr-19 04:44N 53°15' E 001°12'313.8
2017-Apr-19 04:30N 53°13' E 001°14'713.4
2017-Apr-19 04:00N 53°07' E 001°20'613.0
2017-Apr-19 03:30N 53°01' E 001°26'612.5
2017-Apr-19 03:00N 52°57' E 001°33'612.1
2017-Apr-19 02:30N 52°53' E 001°41'611.7
2017-Apr-19 02:00N 52°49' E 001°48'611.5
2017-Apr-19 01:30N 52°46' E 001°56'510.6
2017-Apr-19 01:01N 52°42' E 002°02'610.9
2017-Apr-19 00:30N 52°37' E 002°05'6211.3
2017-Apr-18 19:03N 51°46' E 003°02'312.1
2017-Apr-18 18:49N 51°45' E 003°06'1010.1
2017-Apr-18 17:47N 51°39' E 003°20'412.7
2017-Apr-18 17:30N 51°36' E 003°23'612.9
2017-Apr-18 17:00N 51°30' E 003°27'611.6
2017-Apr-18 16:30N 51°26' E 003°34'  

Dump ship's entire track history